sensor_id;sensor_type;location;lat;lon;timestamp;P1;durP1;ratioP1;P2;durP2;ratioP2
26540;SDS011;14206;50.202;10.948;2022-08-03T00:01:23;0.95;;;0.95;;
26540;SDS011;14206;50.202;10.948;2022-08-03T00:03:50;1.02;;;0.90;;
26540;SDS011;14206;50.202;10.948;2022-08-03T00:06:17;0.90;;;0.90;;
26540;SDS011;14206;50.202;10.948;2022-08-03T00:08:44;0.90;;;0.90;;
26540;SDS011;14206;50.202;10.948;2022-08-03T00:11:11;0.88;;;0.88;;
26540;SDS011;14206;50.202;10.948;2022-08-03T00:13:38;0.90;;;0.90;;
26540;SDS011;14206;50.202;10.948;2022-08-03T00:16:05;1.00;;;1.00;;
26540;SDS011;14206;50.202;10.948;2022-08-03T00:18:32;0.90;;;0.90;;
26540;SDS011;14206;50.202;10.948;2022-08-03T00:20:59;0.90;;;0.90;;
26540;SDS011;14206;50.202;10.948;2022-08-03T00:23:26;0.95;;;0.90;;
26540;SDS011;14206;50.202;10.948;2022-08-03T00:26:13;0.80;;;0.80;;
26540;SDS011;14206;50.202;10.948;2022-08-03T00:28:40;0.82;;;0.82;;
26540;SDS011;14206;50.202;10.948;2022-08-03T00:31:07;1.00;;;1.00;;
26540;SDS011;14206;50.202;10.948;2022-08-03T00:33:38;0.98;;;0.98;;
26540;SDS011;14206;50.202;10.948;2022-08-03T00:36:25;0.80;;;0.80;;
26540;SDS011;14206;50.202;10.948;2022-08-03T00:38:53;1.00;;;0.90;;
26540;SDS011;14206;50.202;10.948;2022-08-03T00:41:21;1.10;;;1.00;;
26540;SDS011;14206;50.202;10.948;2022-08-03T00:43:48;1.30;;;1.20;;
26540;SDS011;14206;50.202;10.948;2022-08-03T00:46:15;0.90;;;0.90;;
26540;SDS011;14206;50.202;10.948;2022-08-03T00:48:50;1.77;;;1.00;;
26540;SDS011;14206;50.202;10.948;2022-08-03T00:51:21;0.95;;;0.95;;
26540;SDS011;14206;50.202;10.948;2022-08-03T00:53:49;0.90;;;0.90;;
26540;SDS011;14206;50.202;10.948;2022-08-03T00:56:17;1.20;;;1.10;;
26540;SDS011;14206;50.202;10.948;2022-08-03T00:58:44;1.00;;;0.90;;
26540;SDS011;14206;50.202;10.948;2022-08-03T01:01:12;0.90;;;0.90;;
26540;SDS011;14206;50.202;10.948;2022-08-03T01:03:39;1.02;;;1.00;;
26540;SDS011;14206;50.202;10.948;2022-08-03T01:06:16;1.27;;;1.00;;
26540;SDS011;14206;50.202;10.948;2022-08-03T01:14:29;1.00;;;0.90;;
26540;SDS011;14206;50.202;10.948;2022-08-03T01:19:48;1.10;;;1.00;;
26540;SDS011;14206;50.202;10.948;2022-08-03T01:22:33;1.00;;;1.00;;
26540;SDS011;14206;50.202;10.948;2022-08-03T01:30:47;1.05;;;1.00;;
26540;SDS011;14206;50.202;10.948;2022-08-03T01:33:17;0.98;;;0.98;;
26540;SDS011;14206;50.202;10.948;2022-08-03T01:35:49;0.90;;;0.90;;
26540;SDS011;14206;50.202;10.948;2022-08-03T01:38:26;0.90;;;0.90;;
26540;SDS011;14206;50.202;10.948;2022-08-03T01:40:56;1.00;;;0.95;;
26540;SDS011;14206;50.202;10.948;2022-08-03T01:43:27;1.23;;;1.13;;
26540;SDS011;14206;50.202;10.948;2022-08-03T01:46:16;0.90;;;0.90;;
26540;SDS011;14206;50.202;10.948;2022-08-03T01:48:46;1.00;;;1.00;;
26540;SDS011;14206;50.202;10.948;2022-08-03T01:51:14;0.90;;;0.90;;
26540;SDS011;14206;50.202;10.948;2022-08-03T01:53:43;1.00;;;1.00;;
26540;SDS011;14206;50.202;10.948;2022-08-03T01:56:12;1.08;;;0.98;;
26540;SDS011;14206;50.202;10.948;2022-08-03T01:58:41;1.13;;;1.02;;
26540;SDS011;14206;50.202;10.948;2022-08-03T02:01:10;1.27;;;1.20;;
26540;SDS011;14206;50.202;10.948;2022-08-03T02:03:39;1.08;;;1.08;;
26540;SDS011;14206;50.202;10.948;2022-08-03T02:06:26;2.35;;;1.20;;
26540;SDS011;14206;50.202;10.948;2022-08-03T02:09:15;1.20;;;1.10;;
26540;SDS011;14206;50.202;10.948;2022-08-03T02:11:46;1.02;;;1.00;;
26540;SDS011;14206;50.202;10.948;2022-08-03T02:14:13;1.05;;;0.95;;
26540;SDS011;14206;50.202;10.948;2022-08-03T02:16:42;1.10;;;1.00;;
26540;SDS011;14206;50.202;10.948;2022-08-03T02:19:11;1.20;;;1.10;;
26540;SDS011;14206;50.202;10.948;2022-08-03T02:21:39;1.35;;;1.25;;
26540;SDS011;14206;50.202;10.948;2022-08-03T02:24:26;0.95;;;0.93;;
26540;SDS011;14206;50.202;10.948;2022-08-03T02:26:54;1.10;;;1.10;;
26540;SDS011;14206;50.202;10.948;2022-08-03T02:29:25;1.30;;;1.20;;
26540;SDS011;14206;50.202;10.948;2022-08-03T02:32:08;1.00;;;1.00;;
26540;SDS011;14206;50.202;10.948;2022-08-03T02:34:40;1.13;;;1.10;;
26540;SDS011;14206;50.202;10.948;2022-08-03T02:37:10;0.95;;;0.95;;
26540;SDS011;14206;50.202;10.948;2022-08-03T02:39:38;1.25;;;1.20;;
26540;SDS011;14206;50.202;10.948;2022-08-03T02:42:08;1.20;;;1.10;;
26540;SDS011;14206;50.202;10.948;2022-08-03T02:44:38;1.00;;;1.00;;
26540;SDS011;14206;50.202;10.948;2022-08-03T02:47:12;1.30;;;1.20;;
26540;SDS011;14206;50.202;10.948;2022-08-03T02:49:41;0.90;;;0.90;;
26540;SDS011;14206;50.202;10.948;2022-08-03T02:52:17;1.10;;;1.10;;
26540;SDS011;14206;50.202;10.948;2022-08-03T02:54:47;1.10;;;1.10;;
26540;SDS011;14206;50.202;10.948;2022-08-03T02:57:16;1.10;;;1.10;;
26540;SDS011;14206;50.202;10.948;2022-08-03T02:59:45;1.17;;;1.08;;
26540;SDS011;14206;50.202;10.948;2022-08-03T03:02:13;1.00;;;1.00;;
26540;SDS011;14206;50.202;10.948;2022-08-03T03:04:43;0.90;;;0.90;;
26540;SDS011;14206;50.202;10.948;2022-08-03T03:07:30;1.05;;;1.02;;
26540;SDS011;14206;50.202;10.948;2022-08-03T03:10:18;1.00;;;1.00;;
26540;SDS011;14206;50.202;10.948;2022-08-03T03:12:47;1.88;;;1.00;;
26540;SDS011;14206;50.202;10.948;2022-08-03T03:15:17;1.08;;;1.00;;
26540;SDS011;14206;50.202;10.948;2022-08-03T03:17:44;1.25;;;1.15;;
26540;SDS011;14206;50.202;10.948;2022-08-03T03:20:15;1.20;;;1.10;;
26540;SDS011;14206;50.202;10.948;2022-08-03T03:22:57;1.27;;;1.20;;
26540;SDS011;14206;50.202;10.948;2022-08-03T03:25:25;1.30;;;1.20;;
26540;SDS011;14206;50.202;10.948;2022-08-03T03:27:58;1.10;;;1.10;;
26540;SDS011;14206;50.202;10.948;2022-08-03T03:30:27;1.35;;;1.25;;
26540;SDS011;14206;50.202;10.948;2022-08-03T03:32:56;1.20;;;1.10;;
26540;SDS011;14206;50.202;10.948;2022-08-03T03:35:24;1.20;;;1.17;;
26540;SDS011;14206;50.202;10.948;2022-08-03T03:37:52;1.40;;;1.30;;
26540;SDS011;14206;50.202;10.948;2022-08-03T03:40:20;1.30;;;1.20;;
26540;SDS011;14206;50.202;10.948;2022-08-03T03:42:48;1.40;;;1.30;;
26540;SDS011;14206;50.202;10.948;2022-08-03T03:45:15;1.27;;;1.17;;
26540;SDS011;14206;50.202;10.948;2022-08-03T03:47:43;1.30;;;1.20;;
26540;SDS011;14206;50.202;10.948;2022-08-03T03:50:10;1.40;;;1.30;;
26540;SDS011;14206;50.202;10.948;2022-08-03T03:52:38;1.40;;;1.30;;
26540;SDS011;14206;50.202;10.948;2022-08-03T03:55:05;1.40;;;1.30;;
26540;SDS011;14206;50.202;10.948;2022-08-03T03:57:33;1.17;;;1.08;;
26540;SDS011;14206;50.202;10.948;2022-08-03T04:00:00;1.17;;;1.10;;
26540;SDS011;14206;50.202;10.948;2022-08-03T04:02:29;1.27;;;1.17;;
26540;SDS011;14206;50.202;10.948;2022-08-03T04:04:56;1.17;;;1.13;;
26540;SDS011;14206;50.202;10.948;2022-08-03T04:07:45;1.10;;;1.10;;
26540;SDS011;14206;50.202;10.948;2022-08-03T04:10:42;1.30;;;1.20;;
26540;SDS011;14206;50.202;10.948;2022-08-03T04:13:28;1.13;;;1.08;;
26540;SDS011;14206;50.202;10.948;2022-08-03T04:15:58;1.35;;;1.10;;
26540;SDS011;14206;50.202;10.948;2022-08-03T04:18:27;1.27;;;1.17;;
26540;SDS011;14206;50.202;10.948;2022-08-03T04:20:58;1.27;;;1.20;;
26540;SDS011;14206;50.202;10.948;2022-08-03T04:23:29;1.30;;;1.20;;
26540;SDS011;14206;50.202;10.948;2022-08-03T04:26:03;1.50;;;1.20;;
26540;SDS011;14206;50.202;10.948;2022-08-03T04:28:34;1.27;;;1.20;;
26540;SDS011;14206;50.202;10.948;2022-08-03T04:31:04;2.15;;;0.98;;
26540;SDS011;14206;50.202;10.948;2022-08-03T04:33:33;1.40;;;1.30;;
26540;SDS011;14206;50.202;10.948;2022-08-03T04:36:04;1.30;;;1.20;;
26540;SDS011;14206;50.202;10.948;2022-08-03T04:38:43;1.05;;;1.05;;
26540;SDS011;14206;50.202;10.948;2022-08-03T04:41:26;0.98;;;0.98;;
26540;SDS011;14206;50.202;10.948;2022-08-03T04:43:54;1.10;;;1.10;;
26540;SDS011;14206;50.202;10.948;2022-08-03T04:46:28;1.30;;;1.20;;
26540;SDS011;14206;50.202;10.948;2022-08-03T04:49:11;1.33;;;1.23;;
26540;SDS011;14206;50.202;10.948;2022-08-03T04:51:39;1.45;;;1.35;;
26540;SDS011;14206;50.202;10.948;2022-08-03T04:54:11;1.20;;;1.10;;
26540;SDS011;14206;50.202;10.948;2022-08-03T04:56:39;1.45;;;1.20;;
26540;SDS011;14206;50.202;10.948;2022-08-03T04:59:06;1.30;;;1.20;;
26540;SDS011;14206;50.202;10.948;2022-08-03T05:01:34;1.38;;;1.27;;
26540;SDS011;14206;50.202;10.948;2022-08-03T05:04:01;1.95;;;1.40;;
26540;SDS011;14206;50.202;10.948;2022-08-03T05:06:29;1.40;;;1.30;;
26540;SDS011;14206;50.202;10.948;2022-08-03T05:08:56;1.30;;;1.20;;
26540;SDS011;14206;50.202;10.948;2022-08-03T05:11:23;1.20;;;1.20;;
26540;SDS011;14206;50.202;10.948;2022-08-03T05:13:49;1.65;;;1.10;;
26540;SDS011;14206;50.202;10.948;2022-08-03T05:16:17;1.50;;;1.30;;
26540;SDS011;14206;50.202;10.948;2022-08-03T05:18:44;1.40;;;1.30;;
26540;SDS011;14206;50.202;10.948;2022-08-03T05:21:11;1.30;;;1.20;;
26540;SDS011;14206;50.202;10.948;2022-08-03T05:23:42;1.30;;;1.20;;
26540;SDS011;14206;50.202;10.948;2022-08-03T05:26:10;1.40;;;1.30;;
26540;SDS011;14206;50.202;10.948;2022-08-03T05:28:37;1.30;;;1.20;;
26540;SDS011;14206;50.202;10.948;2022-08-03T05:31:16;1.50;;;1.40;;
26540;SDS011;14206;50.202;10.948;2022-08-03T05:33:43;1.40;;;1.30;;
26540;SDS011;14206;50.202;10.948;2022-08-03T05:36:10;1.40;;;1.30;;
26540;SDS011;14206;50.202;10.948;2022-08-03T05:38:37;1.20;;;1.20;;
26540;SDS011;14206;50.202;10.948;2022-08-03T05:41:04;1.50;;;1.40;;
26540;SDS011;14206;50.202;10.948;2022-08-03T05:43:52;1.38;;;1.27;;
26540;SDS011;14206;50.202;10.948;2022-08-03T05:46:20;2.55;;;1.42;;
26540;SDS011;14206;50.202;10.948;2022-08-03T05:48:48;1.95;;;1.30;;
26540;SDS011;14206;50.202;10.948;2022-08-03T05:51:16;2.13;;;1.27;;
26540;SDS011;14206;50.202;10.948;2022-08-03T05:53:43;1.60;;;1.50;;
26540;SDS011;14206;50.202;10.948;2022-08-03T05:56:10;1.60;;;1.50;;
26540;SDS011;14206;50.202;10.948;2022-08-03T05:58:44;1.42;;;1.33;;
26540;SDS011;14206;50.202;10.948;2022-08-03T06:01:13;1.45;;;1.30;;
26540;SDS011;14206;50.202;10.948;2022-08-03T06:03:43;1.73;;;1.40;;
26540;SDS011;14206;50.202;10.948;2022-08-03T06:06:11;1.50;;;1.40;;
26540;SDS011;14206;50.202;10.948;2022-08-03T06:08:39;1.65;;;1.55;;
26540;SDS011;14206;50.202;10.948;2022-08-03T06:11:07;2.10;;;1.33;;
26540;SDS011;14206;50.202;10.948;2022-08-03T06:13:35;1.50;;;1.40;;
26540;SDS011;14206;50.202;10.948;2022-08-03T06:16:02;1.48;;;1.38;;
26540;SDS011;14206;50.202;10.948;2022-08-03T06:18:29;1.70;;;1.60;;
26540;SDS011;14206;50.202;10.948;2022-08-03T06:20:56;1.55;;;1.45;;
26540;SDS011;14206;50.202;10.948;2022-08-03T06:23:40;1.65;;;1.55;;
26540;SDS011;14206;50.202;10.948;2022-08-03T06:26:20;1.70;;;1.60;;
26540;SDS011;14206;50.202;10.948;2022-08-03T06:28:47;1.48;;;1.38;;
26540;SDS011;14206;50.202;10.948;2022-08-03T06:31:18;1.40;;;1.30;;
26540;SDS011;14206;50.202;10.948;2022-08-03T06:33:46;1.40;;;1.30;;
26540;SDS011;14206;50.202;10.948;2022-08-03T06:36:33;1.55;;;1.45;;
26540;SDS011;14206;50.202;10.948;2022-08-03T06:39:01;1.45;;;1.35;;
26540;SDS011;14206;50.202;10.948;2022-08-03T06:41:28;1.50;;;1.40;;
26540;SDS011;14206;50.202;10.948;2022-08-03T06:44:06;1.65;;;1.55;;
26540;SDS011;14206;50.202;10.948;2022-08-03T06:46:35;1.40;;;1.30;;
26540;SDS011;14206;50.202;10.948;2022-08-03T06:49:02;1.63;;;1.52;;
26540;SDS011;14206;50.202;10.948;2022-08-03T06:51:29;2.38;;;1.90;;
26540;SDS011;14206;50.202;10.948;2022-08-03T06:54:16;1.70;;;1.60;;
26540;SDS011;14206;50.202;10.948;2022-08-03T06:56:43;2.28;;;1.80;;
26540;SDS011;14206;50.202;10.948;2022-08-03T06:59:10;2.63;;;1.90;;
26540;SDS011;14206;50.202;10.948;2022-08-03T07:01:57;1.52;;;1.42;;
26540;SDS011;14206;50.202;10.948;2022-08-03T07:04:24;1.40;;;1.30;;
26540;SDS011;14206;50.202;10.948;2022-08-03T07:06:51;1.40;;;1.30;;
26540;SDS011;14206;50.202;10.948;2022-08-03T07:09:17;1.70;;;1.60;;
26540;SDS011;14206;50.202;10.948;2022-08-03T07:11:44;1.40;;;1.30;;
26540;SDS011;14206;50.202;10.948;2022-08-03T07:14:11;1.40;;;1.30;;
26540;SDS011;14206;50.202;10.948;2022-08-03T07:16:38;1.30;;;1.20;;
26540;SDS011;14206;50.202;10.948;2022-08-03T07:19:05;1.05;;;1.05;;
26540;SDS011;14206;50.202;10.948;2022-08-03T07:21:32;1.17;;;1.10;;
26540;SDS011;14206;50.202;10.948;2022-08-03T07:23:59;1.20;;;1.10;;
26540;SDS011;14206;50.202;10.948;2022-08-03T07:26:26;0.80;;;0.80;;
26540;SDS011;14206;50.202;10.948;2022-08-03T07:28:53;1.00;;;0.90;;
26540;SDS011;14206;50.202;10.948;2022-08-03T07:31:20;3.92;;;1.10;;
26540;SDS011;14206;50.202;10.948;2022-08-03T07:33:47;2.15;;;1.00;;
26540;SDS011;14206;50.202;10.948;2022-08-03T07:36:14;2.42;;;1.23;;
26540;SDS011;14206;50.202;10.948;2022-08-03T07:38:41;1.80;;;0.80;;
26540;SDS011;14206;50.202;10.948;2022-08-03T07:41:08;0.93;;;0.70;;
26540;SDS011;14206;50.202;10.948;2022-08-03T07:43:35;0.75;;;0.70;;
26540;SDS011;14206;50.202;10.948;2022-08-03T07:46:01;0.50;;;0.50;;
26540;SDS011;14206;50.202;10.948;2022-08-03T07:48:28;0.60;;;0.60;;
26540;SDS011;14206;50.202;10.948;2022-08-03T07:50:55;0.60;;;0.60;;
26540;SDS011;14206;50.202;10.948;2022-08-03T07:53:23;0.60;;;0.60;;
26540;SDS011;14206;50.202;10.948;2022-08-03T07:55:50;0.50;;;0.50;;
26540;SDS011;14206;50.202;10.948;2022-08-03T07:58:16;0.75;;;0.73;;
26540;SDS011;14206;50.202;10.948;2022-08-03T08:00:49;0.70;;;0.70;;
26540;SDS011;14206;50.202;10.948;2022-08-03T08:03:18;1.40;;;0.60;;
26540;SDS011;14206;50.202;10.948;2022-08-03T08:05:47;0.82;;;0.80;;
26540;SDS011;14206;50.202;10.948;2022-08-03T08:08:15;1.20;;;0.70;;
26540;SDS011;14206;50.202;10.948;2022-08-03T08:10:41;0.80;;;0.80;;
26540;SDS011;14206;50.202;10.948;2022-08-03T08:13:24;0.70;;;0.70;;
26540;SDS011;14206;50.202;10.948;2022-08-03T08:15:51;0.60;;;0.60;;
26540;SDS011;14206;50.202;10.948;2022-08-03T08:18:17;0.55;;;0.55;;
26540;SDS011;14206;50.202;10.948;2022-08-03T08:20:44;1.65;;;0.70;;
26540;SDS011;14206;50.202;10.948;2022-08-03T08:23:11;1.10;;;1.00;;
26540;SDS011;14206;50.202;10.948;2022-08-03T08:25:58;0.73;;;0.73;;
26540;SDS011;14206;50.202;10.948;2022-08-03T08:28:25;0.70;;;0.70;;
26540;SDS011;14206;50.202;10.948;2022-08-03T08:30:58;0.88;;;0.80;;
26540;SDS011;14206;50.202;10.948;2022-08-03T08:33:26;0.82;;;0.82;;
26540;SDS011;14206;50.202;10.948;2022-08-03T08:36:13;0.70;;;0.70;;
26540;SDS011;14206;50.202;10.948;2022-08-03T08:38:41;0.50;;;0.50;;
26540;SDS011;14206;50.202;10.948;2022-08-03T08:41:10;0.70;;;0.50;;
26540;SDS011;14206;50.202;10.948;2022-08-03T08:43:38;0.60;;;0.60;;
26540;SDS011;14206;50.202;10.948;2022-08-03T08:46:06;2.60;;;0.70;;
26540;SDS011;14206;50.202;10.948;2022-08-03T08:48:39;0.60;;;0.60;;
26540;SDS011;14206;50.202;10.948;2022-08-03T08:51:07;1.10;;;1.00;;
26540;SDS011;14206;50.202;10.948;2022-08-03T08:53:36;0.60;;;0.60;;
26540;SDS011;14206;50.202;10.948;2022-08-03T08:56:05;0.60;;;0.60;;
26540;SDS011;14206;50.202;10.948;2022-08-03T09:01:07;0.75;;;0.70;;
26540;SDS011;14206;50.202;10.948;2022-08-03T09:03:35;0.60;;;0.60;;
26540;SDS011;14206;50.202;10.948;2022-08-03T09:06:02;0.75;;;0.70;;
26540;SDS011;14206;50.202;10.948;2022-08-03T09:08:32;0.60;;;0.60;;
26540;SDS011;14206;50.202;10.948;2022-08-03T09:10:59;0.40;;;0.40;;
26540;SDS011;14206;50.202;10.948;2022-08-03T09:13:27;0.60;;;0.60;;
26540;SDS011;14206;50.202;10.948;2022-08-03T09:18:48;0.70;;;0.70;;
26540;SDS011;14206;50.202;10.948;2022-08-03T09:24:00;0.65;;;0.50;;
26540;SDS011;14206;50.202;10.948;2022-08-03T09:26:32;0.40;;;0.40;;
26540;SDS011;14206;50.202;10.948;2022-08-03T09:29:08;0.50;;;0.50;;
26540;SDS011;14206;50.202;10.948;2022-08-03T09:31:41;0.47;;;0.47;;
26540;SDS011;14206;50.202;10.948;2022-08-03T09:34:11;0.50;;;0.50;;
26540;SDS011;14206;50.202;10.948;2022-08-03T09:36:43;0.50;;;0.50;;
26540;SDS011;14206;50.202;10.948;2022-08-03T09:39:16;0.40;;;0.40;;
26540;SDS011;14206;50.202;10.948;2022-08-03T09:44:12;0.45;;;0.45;;
26540;SDS011;14206;50.202;10.948;2022-08-03T09:46:54;0.47;;;0.47;;
26540;SDS011;14206;50.202;10.948;2022-08-03T09:49:22;0.60;;;0.60;;
26540;SDS011;14206;50.202;10.948;2022-08-03T09:51:50;0.85;;;0.70;;
26540;SDS011;14206;50.202;10.948;2022-08-03T09:54:38;0.35;;;0.35;;
26540;SDS011;14206;50.202;10.948;2022-08-03T09:57:06;0.82;;;0.60;;
26540;SDS011;14206;50.202;10.948;2022-08-03T09:59:33;0.50;;;0.50;;
26540;SDS011;14206;50.202;10.948;2022-08-03T10:02:04;0.77;;;0.60;;
26540;SDS011;14206;50.202;10.948;2022-08-03T10:04:48;0.63;;;0.63;;
26540;SDS011;14206;50.202;10.948;2022-08-03T10:07:19;0.70;;;0.50;;
26540;SDS011;14206;50.202;10.948;2022-08-03T10:12:43;0.68;;;0.68;;
26540;SDS011;14206;50.202;10.948;2022-08-03T10:15:11;0.70;;;0.70;;
26540;SDS011;14206;50.202;10.948;2022-08-03T10:17:58;0.63;;;0.57;;
26540;SDS011;14206;50.202;10.948;2022-08-03T10:20:24;0.85;;;0.73;;
26540;SDS011;14206;50.202;10.948;2022-08-03T10:22:52;0.60;;;0.60;;
26540;SDS011;14206;50.202;10.948;2022-08-03T10:25:19;0.75;;;0.70;;
26540;SDS011;14206;50.202;10.948;2022-08-03T10:27:58;0.80;;;0.80;;
26540;SDS011;14206;50.202;10.948;2022-08-03T10:30:30;0.60;;;0.60;;
26540;SDS011;14206;50.202;10.948;2022-08-03T10:33:03;0.82;;;0.60;;
26540;SDS011;14206;50.202;10.948;2022-08-03T10:35:55;1.42;;;0.70;;
26540;SDS011;14206;50.202;10.948;2022-08-03T10:38:25;0.60;;;0.60;;
26540;SDS011;14206;50.202;10.948;2022-08-03T10:40:57;1.35;;;0.90;;
26540;SDS011;14206;50.202;10.948;2022-08-03T10:43:27;0.63;;;0.63;;
26540;SDS011;14206;50.202;10.948;2022-08-03T10:46:02;1.55;;;1.02;;
26540;SDS011;14206;50.202;10.948;2022-08-03T10:48:32;1.00;;;1.00;;
26540;SDS011;14206;50.202;10.948;2022-08-03T10:51:01;0.70;;;0.70;;
26540;SDS011;14206;50.202;10.948;2022-08-03T10:53:38;0.98;;;0.82;;
26540;SDS011;14206;50.202;10.948;2022-08-03T10:59:18;0.73;;;0.73;;
26540;SDS011;14206;50.202;10.948;2022-08-03T11:01:58;1.75;;;0.60;;
26540;SDS011;14206;50.202;10.948;2022-08-03T11:04:27;1.17;;;0.90;;
26540;SDS011;14206;50.202;10.948;2022-08-03T11:09:42;1.17;;;1.08;;
26540;SDS011;14206;50.202;10.948;2022-08-03T11:12:20;0.75;;;0.70;;
26540;SDS011;14206;50.202;10.948;2022-08-03T11:14:58;0.80;;;0.80;;
26540;SDS011;14206;50.202;10.948;2022-08-03T11:17:27;2.13;;;0.90;;
26540;SDS011;14206;50.202;10.948;2022-08-03T11:19:54;2.15;;;1.10;;
26540;SDS011;14206;50.202;10.948;2022-08-03T11:22:23;0.90;;;0.90;;
26540;SDS011;14206;50.202;10.948;2022-08-03T11:27:26;1.35;;;0.90;;
26540;SDS011;14206;50.202;10.948;2022-08-03T11:46:04;1.10;;;1.00;;
26540;SDS011;14206;50.202;10.948;2022-08-03T11:51:19;0.98;;;0.90;;
26540;SDS011;14206;50.202;10.948;2022-08-03T11:54:01;1.23;;;1.13;;
26540;SDS011;14206;50.202;10.948;2022-08-03T11:56:46;1.27;;;1.17;;
26540;SDS011;14206;50.202;10.948;2022-08-03T11:59:15;1.10;;;1.00;;
26540;SDS011;14206;50.202;10.948;2022-08-03T12:01:47;1.37;;;1.10;;
26540;SDS011;14206;50.202;10.948;2022-08-03T12:04:15;0.88;;;0.60;;
26540;SDS011;14206;50.202;10.948;2022-08-03T12:06:56;0.85;;;0.80;;
26540;SDS011;14206;50.202;10.948;2022-08-03T12:09:24;1.17;;;0.90;;
26540;SDS011;14206;50.202;10.948;2022-08-03T12:11:51;1.45;;;1.20;;
26540;SDS011;14206;50.202;10.948;2022-08-03T12:14:26;1.25;;;1.15;;
26540;SDS011;14206;50.202;10.948;2022-08-03T12:17:15;1.00;;;0.90;;
26540;SDS011;14206;50.202;10.948;2022-08-03T12:19:43;1.60;;;1.13;;
26540;SDS011;14206;50.202;10.948;2022-08-03T12:22:10;1.10;;;1.00;;
26540;SDS011;14206;50.202;10.948;2022-08-03T12:24:40;1.00;;;0.90;;
26540;SDS011;14206;50.202;10.948;2022-08-03T12:27:08;1.20;;;1.10;;
26540;SDS011;14206;50.202;10.948;2022-08-03T12:29:35;1.10;;;1.00;;
26540;SDS011;14206;50.202;10.948;2022-08-03T12:32:02;1.30;;;1.10;;
26540;SDS011;14206;50.202;10.948;2022-08-03T12:34:43;1.08;;;0.80;;
26540;SDS011;14206;50.202;10.948;2022-08-03T12:37:17;0.60;;;0.60;;
26540;SDS011;14206;50.202;10.948;2022-08-03T12:39:52;0.80;;;0.80;;
26540;SDS011;14206;50.202;10.948;2022-08-03T12:42:33;1.20;;;1.20;;
26540;SDS011;14206;50.202;10.948;2022-08-03T12:45:18;1.00;;;0.97;;
26540;SDS011;14206;50.202;10.948;2022-08-03T12:47:58;1.00;;;1.00;;
26540;SDS011;14206;50.202;10.948;2022-08-03T12:50:30;1.00;;;1.00;;
26540;SDS011;14206;50.202;10.948;2022-08-03T12:53:00;1.20;;;1.10;;
26540;SDS011;14206;50.202;10.948;2022-08-03T12:55:33;0.77;;;0.77;;
26540;SDS011;14206;50.202;10.948;2022-08-03T12:58:28;1.77;;;0.70;;
26540;SDS011;14206;50.202;10.948;2022-08-03T13:01:01;1.27;;;1.17;;
26540;SDS011;14206;50.202;10.948;2022-08-03T13:03:42;0.90;;;0.80;;
26540;SDS011;14206;50.202;10.948;2022-08-03T13:06:22;1.08;;;0.90;;
26540;SDS011;14206;50.202;10.948;2022-08-03T13:09:00;0.82;;;0.82;;
26540;SDS011;14206;50.202;10.948;2022-08-03T13:11:29;1.02;;;0.93;;
26540;SDS011;14206;50.202;10.948;2022-08-03T13:14:16;1.00;;;1.00;;
26540;SDS011;14206;50.202;10.948;2022-08-03T13:16:46;1.48;;;0.90;;
26540;SDS011;14206;50.202;10.948;2022-08-03T13:19:15;0.80;;;0.80;;
26540;SDS011;14206;50.202;10.948;2022-08-03T13:21:43;1.10;;;0.98;;
26540;SDS011;14206;50.202;10.948;2022-08-03T13:24:29;1.52;;;1.30;;
26540;SDS011;14206;50.202;10.948;2022-08-03T13:26:58;0.80;;;0.80;;
26540;SDS011;14206;50.202;10.948;2022-08-03T13:29:45;1.10;;;1.00;;
26540;SDS011;14206;50.202;10.948;2022-08-03T13:32:12;0.95;;;0.95;;
26540;SDS011;14206;50.202;10.948;2022-08-03T13:34:39;0.88;;;0.88;;
26540;SDS011;14206;50.202;10.948;2022-08-03T13:37:06;0.95;;;0.95;;
26540;SDS011;14206;50.202;10.948;2022-08-03T13:39:35;0.90;;;0.90;;
26540;SDS011;14206;50.202;10.948;2022-08-03T13:42:22;0.75;;;0.75;;
26540;SDS011;14206;50.202;10.948;2022-08-03T13:44:49;1.05;;;1.05;;
26540;SDS011;14206;50.202;10.948;2022-08-03T13:47:16;1.10;;;1.10;;
26540;SDS011;14206;50.202;10.948;2022-08-03T13:49:43;0.80;;;0.80;;
26540;SDS011;14206;50.202;10.948;2022-08-03T13:52:34;1.40;;;1.30;;
26540;SDS011;14206;50.202;10.948;2022-08-03T13:55:02;2.47;;;1.20;;
26540;SDS011;14206;50.202;10.948;2022-08-03T13:57:30;1.83;;;1.27;;
26540;SDS011;14206;50.202;10.948;2022-08-03T14:00:18;1.67;;;1.25;;
26540;SDS011;14206;50.202;10.948;2022-08-03T14:02:55;1.27;;;1.17;;
26540;SDS011;14206;50.202;10.948;2022-08-03T14:05:31;1.30;;;1.20;;
26540;SDS011;14206;50.202;10.948;2022-08-03T14:07:58;1.17;;;1.10;;
26540;SDS011;14206;50.202;10.948;2022-08-03T14:10:35;0.90;;;0.90;;
26540;SDS011;14206;50.202;10.948;2022-08-03T14:13:04;0.80;;;0.80;;
26540;SDS011;14206;50.202;10.948;2022-08-03T14:15:31;0.80;;;0.80;;
26540;SDS011;14206;50.202;10.948;2022-08-03T14:18:04;0.90;;;0.80;;
26540;SDS011;14206;50.202;10.948;2022-08-03T14:20:40;0.80;;;0.80;;
26540;SDS011;14206;50.202;10.948;2022-08-03T14:23:16;2.22;;;1.00;;
26540;SDS011;14206;50.202;10.948;2022-08-03T14:25:43;1.10;;;1.00;;
26540;SDS011;14206;50.202;10.948;2022-08-03T14:28:21;1.20;;;1.20;;
26540;SDS011;14206;50.202;10.948;2022-08-03T14:30:52;1.17;;;1.10;;
26540;SDS011;14206;50.202;10.948;2022-08-03T14:33:21;1.10;;;1.00;;
26540;SDS011;14206;50.202;10.948;2022-08-03T14:35:49;1.10;;;1.00;;
26540;SDS011;14206;50.202;10.948;2022-08-03T14:38:17;1.10;;;1.00;;
26540;SDS011;14206;50.202;10.948;2022-08-03T14:40:44;0.90;;;0.90;;
26540;SDS011;14206;50.202;10.948;2022-08-03T14:43:11;1.10;;;1.00;;
26540;SDS011;14206;50.202;10.948;2022-08-03T14:45:39;1.08;;;0.88;;
26540;SDS011;14206;50.202;10.948;2022-08-03T14:48:06;1.00;;;1.00;;
26540;SDS011;14206;50.202;10.948;2022-08-03T14:50:53;2.30;;;1.27;;
26540;SDS011;14206;50.202;10.948;2022-08-03T14:53:22;1.42;;;1.08;;
26540;SDS011;14206;50.202;10.948;2022-08-03T14:55:49;1.05;;;1.05;;
26540;SDS011;14206;50.202;10.948;2022-08-03T14:58:18;2.35;;;1.15;;
26540;SDS011;14206;50.202;10.948;2022-08-03T15:00:48;1.38;;;1.23;;
26540;SDS011;14206;50.202;10.948;2022-08-03T15:03:16;1.23;;;1.05;;
26540;SDS011;14206;50.202;10.948;2022-08-03T15:05:53;1.20;;;1.10;;
26540;SDS011;14206;50.202;10.948;2022-08-03T15:08:22;1.08;;;1.08;;
26540;SDS011;14206;50.202;10.948;2022-08-03T15:10:50;1.00;;;1.00;;
26540;SDS011;14206;50.202;10.948;2022-08-03T15:13:17;1.30;;;1.20;;
26540;SDS011;14206;50.202;10.948;2022-08-03T15:15:45;1.27;;;1.13;;
26540;SDS011;14206;50.202;10.948;2022-08-03T15:18:13;1.20;;;1.13;;
26540;SDS011;14206;50.202;10.948;2022-08-03T15:20:40;1.67;;;1.30;;
26540;SDS011;14206;50.202;10.948;2022-08-03T15:23:14;1.20;;;1.10;;
26540;SDS011;14206;50.202;10.948;2022-08-03T15:25:42;1.20;;;1.10;;
26540;SDS011;14206;50.202;10.948;2022-08-03T15:28:30;0.80;;;0.80;;
26540;SDS011;14206;50.202;10.948;2022-08-03T15:30:57;0.80;;;0.80;;
26540;SDS011;14206;50.202;10.948;2022-08-03T15:33:25;2.42;;;1.02;;
26540;SDS011;14206;50.202;10.948;2022-08-03T15:35:52;0.60;;;0.60;;
26540;SDS011;14206;50.202;10.948;2022-08-03T15:38:19;0.80;;;0.80;;
26540;SDS011;14206;50.202;10.948;2022-08-03T15:40:51;1.10;;;1.00;;
26540;SDS011;14206;50.202;10.948;2022-08-03T15:43:24;1.00;;;1.00;;
26540;SDS011;14206;50.202;10.948;2022-08-03T15:45:50;2.15;;;1.00;;
26540;SDS011;14206;50.202;10.948;2022-08-03T15:48:38;1.15;;;1.10;;
26540;SDS011;14206;50.202;10.948;2022-08-03T15:51:06;1.08;;;1.00;;
26540;SDS011;14206;50.202;10.948;2022-08-03T15:53:34;1.23;;;0.93;;